CMB813 Details

Departure: Joint Base McGuire Dix Lakehurst (KWRI)
Arrival: RAF Mildenhall (EGUN) at N/A
Notes: USTRANSCOM CONTRACT FLIGHT


Current Weather Information
KWRI 231156Z AUTO 28006KT 10SM CLR 12/11 A2991 RMK AO2 SLP128 70056 T01230110 10161 20120 52030
EGUN 231156Z 12009KT 9999 BKN095 14/12 A2992 RMK AO2A SLP135 T01350121 10135 20039 57029 $